ETNL 200120Z 27011KT 9000 FEW010 16/15 Q1017 BLU+ ETNL 200020Z 25008KT 9999 FEW010 16/16 Q1016 BLU+ ETNL 192320Z 25006KT 9999 FEW005 17/16 Q1016 BLU+ ETNL 192220Z 26008KT 9999 SCT005 17/17 Q1016 BLU+ ETNL 192120Z 23005KT 9999 FEW007 BKN280 17/16 Q1015 BLU+ ETNL 192020Z VRB03KT 9999 -RA FEW015 BKN110 18/17 Q1015 BLU ETNL 191920Z 26011KT 9999 -RA FEW015 BKN100 19/17 Q1016 BLU ETNL 191820Z 22007KT 8000 VCSH FEW002 BKN060CB 25/13 Q1015 BLU ETNL 191720Z 18006KT 9999 FEW060 BKN170 26/12 Q1014 BLU ETNL 191620Z 21007KT 9999 FEW060 BKN130 BKN200 27/13 Q1015 BLU ETNL 191520Z 22010KT 9999 FEW060 SCT150 28/12 Q1015 BLU+ ETNL 191442Z 21008KT 9999 FEW060 BKN210 28/12 Q1016 BLU+FCST CNL ETNL 191420Z 22009KT 9999 FEW060 BKN210 29/12 Q1016 BLU+BLU+ ETNL 191320Z 19010KT 9999 FEW060 BKN220 28/12 Q1016 BLU+BLU+ ETNL 191220Z 21008KT 9999 FEW064 BKN220 28/12 Q1017 BLU+BLU+ ETNL 191153Z 20008KT 9999 FEW064 SCT290 BKN390 28/12 Q1017 BLU+BLU+ ETNL 191120Z 21008KT 9999 FEW060 BKN250 28/13 Q1018 BLU+BLU+ ETNL 191020Z 20007KT 9999 FEW120 SCT250 27/13 Q1018 BLU+BLU+ ETNL 190920Z 20008KT 9999 FEW120 SCT260 BKN380 26/13 Q1019 BLU+BLU+ ETNL 190820Z 18005KT 9999 FEW120 SCT270 BKN370 24/14 Q1019 BLU+BLU+ ETNL 190720Z 18007KT 9999 FEW120 BKN260 21/13 Q1020 BLU+BLU+ ETNL 190620Z 17004KT 9999 FEW120 BKN250 19/13 Q1020 BLU+BLU+ ETNL 190520Z 18003KT 9999 FEW120 BKN250 18/12 Q1020 BLU+BLU+ ETNL 190420Z 17004KT 9999 FEW120 BKN240 17/11 Q1020 BLU+ ETNL 190320Z VRB03KT 9999 FEW120 BKN240 17/11 Q1020 BLU+ ETNL 190220Z 18004KT 9999 BKN240 17/11 Q1020 BLU+ ETNL 190120Z 18003KT 9999 BKN260 17/11 Q1020 BLU+ ETNL 190020Z 18003KT 9999 BKN250 17/11 Q1021 BLU+ ETNL 182320Z 13003KT 9999 SCT240 BKN380 17/10 Q1021 BLU+ ETNL 182220Z 13003KT 9999 FEW240 BKN360 18/11 Q1021 BLU+ ETNL 182120Z VRB03KT 9999 SCT360 BKN400 19/11 Q1021 BLU+ ETNL 182020Z 14003KT 9999 FEW220 BKN320 BKN400 19/11 Q1021 BLU+ ETNL 181920Z 13003KT 9999 BKN230 BKN350 20/11 Q1022 BLU+ ETNL 181820Z 14003KT 9999 FEW080 BKN320 22/11 Q1021 BLU+ ETNL 181720Z 15005KT 9999 FEW080 SCT280 24/11 Q1021 BLU+ ETNL 181620Z 18007KT 9999 FEW080 SCT280 24/10 Q1022 BLU+ ETNL 181520Z 18008KT 9999 FEW080 SCT280 24/10 Q1022 BLU+FCST CNL ETNL 181420Z 16007KT 9999 FEW060 SCT350 24/10 Q1022 BLU+BLU+

METAR Messwerte "LAAGE" ETNL

Zurück zur Übersicht

Ortsname
Ländercode / m ü. NN
Zeit Temperatur Taupunkt Rel.
Luftfeuchte
Luftdruck:
Altimeter
NN
Station
Wind in Beaufort
(Knoten)
Sichtweite
(Meter)
Wolken
(Meter über Grund)
Wettererscheinung
LAAGE
DE 40
Fr 20.05. 03:20161594 %1017
1017
1012
W 4 (11)9000Leicht bewölkt (300) 
LAAGE
DE 40
Fr 20.05. 02:201616100 %1016
1016
1011
WSW 3 (8)>= 10000Leicht bewölkt (300) 
LAAGE
DE 40
Fr 20.05. 01:20171694 %1016
1016
1011
WSW 2 (6)>= 10000Leicht bewölkt (150) 
LAAGE
DE 40
Fr 20.05. 00:201717100 %1016
1016
1011
W 3 (8)>= 10000Wolkig (150) 
LAAGE
DE 40
Do 19.05. 23:20171694 %1015
1015
1010
SW 2 (5)>= 10000Stark bewölkt (8500)
Leicht bewölkt (210)
 
LAAGE
DE 40
Do 19.05. 22:20181794 %1015
1015
1010
Uml 2 (3)>= 10000Stark bewölkt (3400)
Leicht bewölkt (460)
Regen (schwach)
LAAGE
DE 40
Do 19.05. 21:20191788 %1016
1016
1011
W 4 (11)>= 10000Stark bewölkt (3000)
Leicht bewölkt (460)
Regen (schwach)
LAAGE
DE 40
Do 19.05. 20:20251347 %1015
1015
1010
SW 3 (7)8000Stark bewölkt Cb (1800)
Leicht bewölkt (61)
 
LAAGE
DE 40
Do 19.05. 19:20261242 %1014
1014
1009
S 2 (6)>= 10000Stark bewölkt (5200)
Leicht bewölkt (1800)
 
LAAGE
DE 40
Do 19.05. 18:20271342 %1015
1015
1010
SSW 3 (7)>= 10000Stark bewölkt (6100)
Stark bewölkt (4000)
Leicht bewölkt (1800)
 
LAAGE
DE 40
Do 19.05. 17:20281237 %1015
1015
1010
SW 3 (10)>= 10000Wolkig (4600)
Leicht bewölkt (1800)
 
LAAGE
DE 40
Do 19.05. 16:42281237 %1016
1016
1011
SSW 3 (8)>= 10000Stark bewölkt (6400)
Leicht bewölkt (1800)
 
LAAGE
DE 40
Do 19.05. 16:20291235 %1016
1016
1011
SW 3 (9)>= 10000Stark bewölkt (6400)
Leicht bewölkt (1800)
 
LAAGE
DE 40
Do 19.05. 15:20281237 %1016
1016
1011
S 3 (10)>= 10000Stark bewölkt (6700)
Leicht bewölkt (1800)
 
LAAGE
DE 40
Do 19.05. 14:20281237 %1017
1017
1012
SSW 3 (8)>= 10000Stark bewölkt (6700)
Leicht bewölkt (2000)
 
LAAGE
DE 40
Do 19.05. 13:53281237 %1017
1017
1012
SSW 3 (8)>= 10000Stark bewölkt (12000)
Wolkig (8800)
Leicht bewölkt (2000)
 
LAAGE
DE 40
Do 19.05. 13:20281340 %1018
1018
1013
SSW 3 (8)>= 10000Stark bewölkt (7600)
Leicht bewölkt (1800)
 
LAAGE
DE 40
Do 19.05. 12:20271342 %1018
1018
1013
SSW 3 (7)>= 10000Wolkig (7600)
Leicht bewölkt (3700)
 
LAAGE
DE 40
Do 19.05. 11:20261345 %1019
1019
1014
SSW 3 (8)>= 10000Stark bewölkt (12000)
Wolkig (7900)
Leicht bewölkt (3700)
 
LAAGE
DE 40
Do 19.05. 10:20241454 %1019
1019
1014
S 2 (5)>= 10000Stark bewölkt (11000)
Wolkig (8200)
Leicht bewölkt (3700)
 
LAAGE
DE 40
Do 19.05. 09:20211360 %1020
1020
1015
S 3 (7)>= 10000Stark bewölkt (7900)
Leicht bewölkt (3700)
 
LAAGE
DE 40
Do 19.05. 08:20191368 %1020
1020
1015
S 2 (4)>= 10000Stark bewölkt (7600)
Leicht bewölkt (3700)
 
LAAGE
DE 40
Do 19.05. 07:20181268 %1020
1020
1015
S 2 (3)>= 10000Stark bewölkt (7600)
Leicht bewölkt (3700)
 
LAAGE
DE 40
Do 19.05. 06:20171168 %1020
1020
1015
S 2 (4)>= 10000Stark bewölkt (7300)
Leicht bewölkt (3700)
 
LAAGE
DE 40
Do 19.05. 05:20171168 %1020
1020
1015
Uml 2 (3)>= 10000Stark bewölkt (7300)
Leicht bewölkt (3700)
 
LAAGE
DE 40
Do 19.05. 04:20171168 %1020
1020
1015
S 2 (4)>= 10000Stark bewölkt (7300) 
LAAGE
DE 40
Do 19.05. 03:20171168 %1020
1020
1015
S 2 (3)>= 10000Stark bewölkt (7900) 
LAAGE
DE 40
Do 19.05. 02:20171168 %1021
1021
1016
S 2 (3)>= 10000Stark bewölkt (7600) 
LAAGE
DE 40
Do 19.05. 01:20171063 %1021
1021
1016
SO 2 (3)>= 10000Stark bewölkt (12000)
Wolkig (7300)
 
LAAGE
DE 40
Do 19.05. 00:20181164 %1021
1021
1016
SO 2 (3)>= 10000Stark bewölkt (11000)
Leicht bewölkt (7300)
 
LAAGE
DE 40
Mi 18.05. 23:20191160 %1021
1021
1016
Uml 2 (3)>= 10000Stark bewölkt (12000)
Wolkig (11000)
 
LAAGE
DE 40
Mi 18.05. 22:20191160 %1021
1021
1016
SO 2 (3)>= 10000Stark bewölkt (12000)
Stark bewölkt (9800)
Leicht bewölkt (6700)
 
LAAGE
DE 40
Mi 18.05. 21:20201156 %1022
1022
1017
SO 2 (3)>= 10000Stark bewölkt (11000)
Stark bewölkt (7000)
 
LAAGE
DE 40
Mi 18.05. 20:20221150 %1021
1021
1016
SO 2 (3)>= 10000Stark bewölkt (9800)
Leicht bewölkt (2400)
 
LAAGE
DE 40
Mi 18.05. 19:20241144 %1021
1021
1016
SSO 2 (5)>= 10000Wolkig (8500)
Leicht bewölkt (2400)
 
LAAGE
DE 40
Mi 18.05. 18:20241041 %1022
1022
1017
S 3 (7)>= 10000Wolkig (8500)
Leicht bewölkt (2400)
 
LAAGE
DE 40
Mi 18.05. 17:20241041 %1022
1022
1017
S 3 (8)>= 10000Wolkig (8500)
Leicht bewölkt (2400)
 
LAAGE
DE 40
Mi 18.05. 16:20241041 %1022
1022
1017
SSO 3 (7)>= 10000Wolkig (11000)
Leicht bewölkt (1800)
 

Altimeter: Einstellung am Altimeter (Höhenmesser), die Höhe 0 muss auf diesen Luftdruckwert zeigen, damit das Gerät die Stationshöhe richtig anzeigt.

NN: Luftdruck reduziert auf "Normal Null", auf Meereshöhe, dieser von der Temperatur abhängige Wert wird bisweilen unkorrekt einfach als "Luftdruck" bezeichnet. Eigentlich nur eine fiktive Größe, die es erlaubt, Stationen auf unterschiedlichen Höhen miteinander zu vergleichen.

Station: Realer Luftdruck an der Station.